sensor_id;sensor_type;location;lat;lon;timestamp;temperature;humidity
40556;DHT22;26250;45.422;11.100;2023-06-22T10:15:42;32.60;63.90
40556;DHT22;26250;45.422;11.100;2023-06-22T10:18:09;32.70;64.80
40556;DHT22;26250;45.422;11.100;2023-06-22T10:20:36;32.70;64.30
40556;DHT22;26250;45.422;11.100;2023-06-22T10:23:03;32.70;63.50
40556;DHT22;26250;45.422;11.100;2023-06-22T10:25:33;32.70;63.10
40556;DHT22;26250;45.422;11.100;2023-06-22T10:28:00;32.80;63.40
40556;DHT22;26250;45.422;11.100;2023-06-22T10:30:27;32.90;63.20
40556;DHT22;26250;45.422;11.100;2023-06-22T10:32:55;32.90;63.50
40556;DHT22;26250;45.422;11.100;2023-06-22T10:35:22;32.90;63.70
40556;DHT22;26250;45.422;11.100;2023-06-22T10:37:49;32.90;63.30
40556;DHT22;26250;45.422;11.100;2023-06-22T10:40:17;32.90;64.00
40556;DHT22;26250;45.422;11.100;2023-06-22T10:42:45;32.90;63.70
40556;DHT22;26250;45.422;11.100;2023-06-22T10:45:12;33.00;63.60
40556;DHT22;26250;45.422;11.100;2023-06-22T10:47:40;33.10;63.30
40556;DHT22;26250;45.422;11.100;2023-06-22T10:50:09;33.10;63.10
40556;DHT22;26250;45.422;11.100;2023-06-22T10:52:36;33.10;62.90
40556;DHT22;26250;45.422;11.100;2023-06-22T10:55:04;33.10;63.40
40556;DHT22;26250;45.422;11.100;2023-06-22T10:57:31;33.10;64.10
40556;DHT22;26250;45.422;11.100;2023-06-22T10:59:58;33.10;63.10
40556;DHT22;26250;45.422;11.100;2023-06-22T11:02:27;33.20;63.50
40556;DHT22;26250;45.422;11.100;2023-06-22T11:04:55;33.20;63.60
40556;DHT22;26250;45.422;11.100;2023-06-22T11:07:22;33.20;63.50
40556;DHT22;26250;45.422;11.100;2023-06-22T11:09:50;33.20;62.90
40556;DHT22;26250;45.422;11.100;2023-06-22T11:12:17;33.20;62.60
40556;DHT22;26250;45.422;11.100;2023-06-22T11:14:44;33.30;63.20
40556;DHT22;26250;45.422;11.100;2023-06-22T11:17:11;33.40;63.00
40556;DHT22;26250;45.422;11.100;2023-06-22T11:19:41;33.40;62.90
40556;DHT22;26250;45.422;11.100;2023-06-22T11:22:08;33.50;62.60
40556;DHT22;26250;45.422;11.100;2023-06-22T11:24:35;33.50;61.90
40556;DHT22;26250;45.422;11.100;2023-06-22T11:27:03;33.50;62.70
40556;DHT22;26250;45.422;11.100;2023-06-22T11:29:32;33.50;63.40
40556;DHT22;26250;45.422;11.100;2023-06-22T11:32:06;33.50;63.00
40556;DHT22;26250;45.422;11.100;2023-06-22T11:34:33;33.50;63.80
40556;DHT22;26250;45.422;11.100;2023-06-22T11:37:01;33.50;63.40
40556;DHT22;26250;45.422;11.100;2023-06-22T11:39:28;33.50;63.70
40556;DHT22;26250;45.422;11.100;2023-06-22T11:42:09;33.50;63.10
40556;DHT22;26250;45.422;11.100;2023-06-22T11:44:36;33.60;61.80
40556;DHT22;26250;45.422;11.100;2023-06-22T11:47:03;33.60;62.10
40556;DHT22;26250;45.422;11.100;2023-06-22T11:49:31;33.60;61.60
40556;DHT22;26250;45.422;11.100;2023-06-22T11:51:58;33.70;61.00
40556;DHT22;26250;45.422;11.100;2023-06-22T11:54:25;33.70;61.60
40556;DHT22;26250;45.422;11.100;2023-06-22T11:56:52;33.80;60.50
40556;DHT22;26250;45.422;11.100;2023-06-22T11:59:20;33.70;60.20
40556;DHT22;26250;45.422;11.100;2023-06-22T12:01:49;33.70;60.30
40556;DHT22;26250;45.422;11.100;2023-06-22T12:04:18;33.80;61.50
40556;DHT22;26250;45.422;11.100;2023-06-22T12:06:47;33.80;61.40
40556;DHT22;26250;45.422;11.100;2023-06-22T12:09:14;33.80;61.40
40556;DHT22;26250;45.422;11.100;2023-06-22T12:11:41;33.80;61.20
40556;DHT22;26250;45.422;11.100;2023-06-22T12:14:08;33.90;61.00
40556;DHT22;26250;45.422;11.100;2023-06-22T12:16:35;33.90;61.20
40556;DHT22;26250;45.422;11.100;2023-06-22T12:19:02;34.00;61.00
40556;DHT22;26250;45.422;11.100;2023-06-22T12:21:29;34.00;60.60
40556;DHT22;26250;45.422;11.100;2023-06-22T12:23:56;34.00;61.50
40556;DHT22;26250;45.422;11.100;2023-06-22T12:26:23;34.00;61.40
40556;DHT22;26250;45.422;11.100;2023-06-22T12:28:50;34.10;60.80
40556;DHT22;26250;45.422;11.100;2023-06-22T12:31:17;34.00;61.10
40556;DHT22;26250;45.422;11.100;2023-06-22T12:33:44;34.00;60.60
40556;DHT22;26250;45.422;11.100;2023-06-22T12:36:11;34.10;60.80
40556;DHT22;26250;45.422;11.100;2023-06-22T12:38:38;34.00;61.10
40556;DHT22;26250;45.422;11.100;2023-06-22T12:41:05;34.00;61.10
40556;DHT22;26250;45.422;11.100;2023-06-22T12:43:32;34.00;60.70
40556;DHT22;26250;45.422;11.100;2023-06-22T12:45:59;34.10;60.20
40556;DHT22;26250;45.422;11.100;2023-06-22T12:48:27;34.10;59.80
40556;DHT22;26250;45.422;11.100;2023-06-22T12:50:54;34.10;60.00
40556;DHT22;26250;45.422;11.100;2023-06-22T12:53:22;34.10;60.10
40556;DHT22;26250;45.422;11.100;2023-06-22T12:55:50;34.00;60.20
40556;DHT22;26250;45.422;11.100;2023-06-22T12:58:17;34.00;60.00
40556;DHT22;26250;45.422;11.100;2023-06-22T13:00:44;34.00;60.70
40556;DHT22;26250;45.422;11.100;2023-06-22T13:03:11;34.00;61.90
40556;DHT22;26250;45.422;11.100;2023-06-22T13:05:38;34.00;60.00
40556;DHT22;26250;45.422;11.100;2023-06-22T13:08:06;34.20;60.80
40556;DHT22;26250;45.422;11.100;2023-06-22T13:10:38;34.20;61.20
40556;DHT22;26250;45.422;11.100;2023-06-22T13:13:05;34.20;60.40
40556;DHT22;26250;45.422;11.100;2023-06-22T13:15:32;34.20;61.10
40556;DHT22;26250;45.422;11.100;2023-06-22T13:18:00;34.20;61.10
40556;DHT22;26250;45.422;11.100;2023-06-22T13:20:29;34.20;60.60
40556;DHT22;26250;45.422;11.100;2023-06-22T13:22:56;34.10;60.10
40556;DHT22;26250;45.422;11.100;2023-06-22T13:25:26;34.20;60.10
40556;DHT22;26250;45.422;11.100;2023-06-22T13:27:54;34.30;60.40
40556;DHT22;26250;45.422;11.100;2023-06-22T13:30:21;34.20;60.60
40556;DHT22;26250;45.422;11.100;2023-06-22T13:32:48;34.20;60.70
40556;DHT22;26250;45.422;11.100;2023-06-22T13:35:15;34.30;60.70
40556;DHT22;26250;45.422;11.100;2023-06-22T13:37:42;34.30;60.30
40556;DHT22;26250;45.422;11.100;2023-06-22T13:40:09;34.50;59.50
40556;DHT22;26250;45.422;11.100;2023-06-22T13:42:36;34.50;58.50
40556;DHT22;26250;45.422;11.100;2023-06-22T13:45:04;34.50;59.10
40556;DHT22;26250;45.422;11.100;2023-06-22T13:47:32;34.50;58.70
40556;DHT22;26250;45.422;11.100;2023-06-22T13:49:59;34.60;58.60
40556;DHT22;26250;45.422;11.100;2023-06-22T13:52:26;34.60;58.90
40556;DHT22;26250;45.422;11.100;2023-06-22T13:54:54;34.60;59.30
40556;DHT22;26250;45.422;11.100;2023-06-22T13:57:21;34.60;59.30
40556;DHT22;26250;45.422;11.100;2023-06-22T13:59:47;34.60;59.60
40556;DHT22;26250;45.422;11.100;2023-06-22T14:02:17;34.50;59.70
40556;DHT22;26250;45.422;11.100;2023-06-22T14:04:44;34.50;59.00
40556;DHT22;26250;45.422;11.100;2023-06-22T14:07:12;34.60;59.90
40556;DHT22;26250;45.422;11.100;2023-06-22T14:09:41;34.60;59.70
40556;DHT22;26250;45.422;11.100;2023-06-22T14:12:09;34.60;58.90
40556;DHT22;26250;45.422;11.100;2023-06-22T14:14:36;34.80;59.40
40556;DHT22;26250;45.422;11.100;2023-06-22T14:17:04;34.80;58.60
40556;DHT22;26250;45.422;11.100;2023-06-22T14:19:31;34.80;58.10
40556;DHT22;26250;45.422;11.100;2023-06-22T14:21:58;34.80;58.40
40556;DHT22;26250;45.422;11.100;2023-06-22T14:24:26;34.80;59.30
40556;DHT22;26250;45.422;11.100;2023-06-22T14:26:55;34.80;58.40
40556;DHT22;26250;45.422;11.100;2023-06-22T14:29:26;34.90;58.00
40556;DHT22;26250;45.422;11.100;2023-06-22T14:31:53;34.90;58.20
40556;DHT22;26250;45.422;11.100;2023-06-22T14:34:20;34.90;58.10
40556;DHT22;26250;45.422;11.100;2023-06-22T14:36:47;34.80;59.60
40556;DHT22;26250;45.422;11.100;2023-06-22T14:39:14;34.80;58.10
40556;DHT22;26250;45.422;11.100;2023-06-22T14:41:40;34.80;58.50
40556;DHT22;26250;45.422;11.100;2023-06-22T14:44:08;34.70;58.20
40556;DHT22;26250;45.422;11.100;2023-06-22T14:46:35;34.70;58.60
40556;DHT22;26250;45.422;11.100;2023-06-22T14:49:02;34.80;58.00
40556;DHT22;26250;45.422;11.100;2023-06-22T14:51:29;34.80;58.50
40556;DHT22;26250;45.422;11.100;2023-06-22T14:53:56;34.90;58.70
40556;DHT22;26250;45.422;11.100;2023-06-22T14:56:25;34.90;57.80
40556;DHT22;26250;45.422;11.100;2023-06-22T14:58:52;34.90;56.80
40556;DHT22;26250;45.422;11.100;2023-06-22T15:01:19;34.90;56.70
40556;DHT22;26250;45.422;11.100;2023-06-22T15:03:46;34.80;56.70
40556;DHT22;26250;45.422;11.100;2023-06-22T15:06:16;34.80;56.50
40556;DHT22;26250;45.422;11.100;2023-06-22T15:08:43;34.80;56.10
40556;DHT22;26250;45.422;11.100;2023-06-22T15:11:10;34.80;55.80
40556;DHT22;26250;45.422;11.100;2023-06-22T15:13:41;34.80;56.00
40556;DHT22;26250;45.422;11.100;2023-06-22T15:16:08;34.70;55.60
40556;DHT22;26250;45.422;11.100;2023-06-22T15:18:36;34.70;56.30
40556;DHT22;26250;45.422;11.100;2023-06-22T15:21:04;34.70;55.80
40556;DHT22;26250;45.422;11.100;2023-06-22T15:23:32;34.70;55.60
40556;DHT22;26250;45.422;11.100;2023-06-22T15:26:02;34.70;57.10
40556;DHT22;26250;45.422;11.100;2023-06-22T15:28:31;34.60;56.20
40556;DHT22;26250;45.422;11.100;2023-06-22T15:31:05;34.70;57.20
40556;DHT22;26250;45.422;11.100;2023-06-22T15:33:32;34.70;56.90
40556;DHT22;26250;45.422;11.100;2023-06-22T15:35:59;34.80;56.80
40556;DHT22;26250;45.422;11.100;2023-06-22T15:38:31;34.70;56.10
40556;DHT22;26250;45.422;11.100;2023-06-22T15:40:58;34.70;56.10
40556;DHT22;26250;45.422;11.100;2023-06-22T15:43:26;34.60;55.80
40556;DHT22;26250;45.422;11.100;2023-06-22T15:45:53;34.60;58.10
40556;DHT22;26250;45.422;11.100;2023-06-22T15:48:21;34.60;56.60
40556;DHT22;26250;45.422;11.100;2023-06-22T15:50:48;34.60;56.60
40556;DHT22;26250;45.422;11.100;2023-06-22T15:53:15;34.60;55.90
40556;DHT22;26250;45.422;11.100;2023-06-22T15:55:42;34.60;55.70
40556;DHT22;26250;45.422;11.100;2023-06-22T15:58:09;34.60;58.40
40556;DHT22;26250;45.422;11.100;2023-06-22T16:00:39;34.70;57.20
40556;DHT22;26250;45.422;11.100;2023-06-22T16:03:06;34.70;58.20
40556;DHT22;26250;45.422;11.100;2023-06-22T16:05:35;34.70;56.60
40556;DHT22;26250;45.422;11.100;2023-06-22T16:08:02;34.80;55.90
40556;DHT22;26250;45.422;11.100;2023-06-22T16:10:29;34.80;56.40
40556;DHT22;26250;45.422;11.100;2023-06-22T16:12:56;34.80;56.40
40556;DHT22;26250;45.422;11.100;2023-06-22T16:15:24;34.70;55.30
40556;DHT22;26250;45.422;11.100;2023-06-22T16:17:51;34.70;55.30
40556;DHT22;26250;45.422;11.100;2023-06-22T16:20:18;34.70;55.40
40556;DHT22;26250;45.422;11.100;2023-06-22T16:22:48;34.70;56.20
40556;DHT22;26250;45.422;11.100;2023-06-22T16:25:16;34.70;55.60
40556;DHT22;26250;45.422;11.100;2023-06-22T16:27:46;34.70;57.10
40556;DHT22;26250;45.422;11.100;2023-06-22T16:30:13;34.70;55.60
40556;DHT22;26250;45.422;11.100;2023-06-22T16:32:50;34.70;55.40
40556;DHT22;26250;45.422;11.100;2023-06-22T16:35:17;34.80;55.90
40556;DHT22;26250;45.422;11.100;2023-06-22T16:37:44;34.80;55.60
40556;DHT22;26250;45.422;11.100;2023-06-22T16:40:11;34.80;57.00
40556;DHT22;26250;45.422;11.100;2023-06-22T16:42:38;34.80;57.30
40556;DHT22;26250;45.422;11.100;2023-06-22T16:45:09;34.80;58.10
40556;DHT22;26250;45.422;11.100;2023-06-22T16:47:36;34.70;57.00
40556;DHT22;26250;45.422;11.100;2023-06-22T16:50:04;34.70;56.80
40556;DHT22;26250;45.422;11.100;2023-06-22T16:52:31;34.60;57.60
40556;DHT22;26250;45.422;11.100;2023-06-22T16:55:00;34.60;58.10
40556;DHT22;26250;45.422;11.100;2023-06-22T16:57:29;34.60;56.90
40556;DHT22;26250;45.422;11.100;2023-06-22T16:59:56;34.60;58.40
40556;DHT22;26250;45.422;11.100;2023-06-22T17:02:24;34.60;57.00
40556;DHT22;26250;45.422;11.100;2023-06-22T17:04:53;34.60;57.00
40556;DHT22;26250;45.422;11.100;2023-06-22T17:07:21;34.50;58.00
40556;DHT22;26250;45.422;11.100;2023-06-22T17:09:50;34.50;57.20
40556;DHT22;26250;45.422;11.100;2023-06-22T17:12:17;34.50;58.00
40556;DHT22;26250;45.422;11.100;2023-06-22T17:14:52;34.40;58.50
40556;DHT22;26250;45.422;11.100;2023-06-22T17:17:19;34.40;59.00
40556;DHT22;26250;45.422;11.100;2023-06-22T17:19:48;34.40;59.80
40556;DHT22;26250;45.422;11.100;2023-06-22T17:22:15;34.40;60.90
40556;DHT22;26250;45.422;11.100;2023-06-22T17:24:43;34.30;61.80
40556;DHT22;26250;45.422;11.100;2023-06-22T17:27:10;34.20;62.60
40556;DHT22;26250;45.422;11.100;2023-06-22T17:29:37;34.10;62.90
40556;DHT22;26250;45.422;11.100;2023-06-22T17:32:05;34.10;63.30
40556;DHT22;26250;45.422;11.100;2023-06-22T17:34:32;34.10;63.80
40556;DHT22;26250;45.422;11.100;2023-06-22T17:37:02;34.10;63.50
40556;DHT22;26250;45.422;11.100;2023-06-22T17:39:29;34.00;63.70
40556;DHT22;26250;45.422;11.100;2023-06-22T17:41:56;34.00;63.90
40556;DHT22;26250;45.422;11.100;2023-06-22T17:44:27;34.00;63.80
40556;DHT22;26250;45.422;11.100;2023-06-22T17:46:55;34.00;64.50
40556;DHT22;26250;45.422;11.100;2023-06-22T17:49:30;33.90;64.80
40556;DHT22;26250;45.422;11.100;2023-06-22T17:52:00;33.90;65.20
40556;DHT22;26250;45.422;11.100;2023-06-22T17:54:31;33.90;65.50
40556;DHT22;26250;45.422;11.100;2023-06-22T17:57:17;33.90;65.60
40556;DHT22;26250;45.422;11.100;2023-06-22T17:59:49;33.90;65.90
40556;DHT22;26250;45.422;11.100;2023-06-22T18:02:23;33.90;65.80
40556;DHT22;26250;45.422;11.100;2023-06-22T18:04:50;33.80;65.60
40556;DHT22;26250;45.422;11.100;2023-06-22T18:07:24;33.70;65.80
40556;DHT22;26250;45.422;11.100;2023-06-22T18:09:53;33.60;66.20
40556;DHT22;26250;45.422;11.100;2023-06-22T18:12:21;33.60;66.70
40556;DHT22;26250;45.422;11.100;2023-06-22T18:14:48;33.60;67.20
40556;DHT22;26250;45.422;11.100;2023-06-22T18:17:16;33.40;67.30
40556;DHT22;26250;45.422;11.100;2023-06-22T18:19:44;33.40;67.30
40556;DHT22;26250;45.422;11.100;2023-06-22T18:22:13;33.40;67.00
40556;DHT22;26250;45.422;11.100;2023-06-22T18:24:40;33.30;67.40
40556;DHT22;26250;45.422;11.100;2023-06-22T18:27:10;33.30;67.20
40556;DHT22;26250;45.422;11.100;2023-06-22T18:29:38;33.30;68.00
40556;DHT22;26250;45.422;11.100;2023-06-22T18:32:06;33.30;67.40
40556;DHT22;26250;45.422;11.100;2023-06-22T18:34:33;33.20;67.50
40556;DHT22;26250;45.422;11.100;2023-06-22T18:37:03;33.20;67.50
40556;DHT22;26250;45.422;11.100;2023-06-22T18:39:33;33.20;67.70
40556;DHT22;26250;45.422;11.100;2023-06-22T18:42:00;33.10;68.00
40556;DHT22;26250;45.422;11.100;2023-06-22T18:44:33;33.10;67.10
40556;DHT22;26250;45.422;11.100;2023-06-22T18:47:06;33.00;67.30
40556;DHT22;26250;45.422;11.100;2023-06-22T18:49:34;33.00;67.60
40556;DHT22;26250;45.422;11.100;2023-06-22T18:52:17;32.90;67.80
40556;DHT22;26250;45.422;11.100;2023-06-22T18:54:50;32.80;68.20
40556;DHT22;26250;45.422;11.100;2023-06-22T18:57:21;32.80;67.70
40556;DHT22;26250;45.422;11.100;2023-06-22T19:05:36;32.70;68.10
40556;DHT22;26250;45.422;11.100;2023-06-22T19:08:04;32.70;67.50
40556;DHT22;26250;45.422;11.100;2023-06-22T19:15:40;32.40;71.90
40556;DHT22;26250;45.422;11.100;2023-06-22T19:20:41;32.40;72.20
40556;DHT22;26250;45.422;11.100;2023-06-22T19:25:53;32.40;72.00
40556;DHT22;26250;45.422;11.100;2023-06-22T19:28:31;32.30;71.30
40556;DHT22;26250;45.422;11.100;2023-06-22T19:31:02;32.20;68.90
40556;DHT22;26250;45.422;11.100;2023-06-22T19:33:30;32.10;69.30
40556;DHT22;26250;45.422;11.100;2023-06-22T19:36:00;32.10;68.70
40556;DHT22;26250;45.422;11.100;2023-06-22T19:38:29;32.00;68.60
40556;DHT22;26250;45.422;11.100;2023-06-22T19:40:58;32.00;68.60
40556;DHT22;26250;45.422;11.100;2023-06-22T19:43:29;32.00;68.80
40556;DHT22;26250;45.422;11.100;2023-06-22T19:45:57;31.90;68.20
40556;DHT22;26250;45.422;11.100;2023-06-22T19:48:25;31.90;68.40
40556;DHT22;26250;45.422;11.100;2023-06-22T19:50:53;31.80;68.10
40556;DHT22;26250;45.422;11.100;2023-06-22T19:53:21;31.80;67.80
40556;DHT22;26250;45.422;11.100;2023-06-22T19:55:51;31.80;67.20
40556;DHT22;26250;45.422;11.100;2023-06-22T19:58:20;31.70;67.10
40556;DHT22;26250;45.422;11.100;2023-06-22T20:00:47;31.70;67.00
40556;DHT22;26250;45.422;11.100;2023-06-22T20:03:28;31.70;66.90
40556;DHT22;26250;45.422;11.100;2023-06-22T20:06:13;31.70;66.80
40556;DHT22;26250;45.422;11.100;2023-06-22T20:08:49;31.70;66.60
40556;DHT22;26250;45.422;11.100;2023-06-22T20:11:27;31.60;66.80
40556;DHT22;26250;45.422;11.100;2023-06-22T20:13:59;31.60;66.50
40556;DHT22;26250;45.422;11.100;2023-06-22T20:16:28;31.50;66.50
